createdAt,value
2019-05-26T00:01:43.707Z,94.60
2019-05-26T00:06:45.054Z,94.80
2019-05-26T00:11:46.670Z,95.00
2019-05-26T00:16:49.260Z,95.40
2019-05-26T00:21:50.586Z,95.10
2019-05-26T00:26:52.002Z,95.10
2019-05-26T00:31:53.332Z,95.20
2019-05-26T00:36:54.762Z,95.40
2019-05-26T00:41:56.508Z,95.50
2019-05-26T00:46:58.373Z,95.70
2019-05-26T00:52:01.376Z,95.90
2019-05-26T00:57:04.676Z,96.10
2019-05-26T01:02:06.103Z,96.10
2019-05-26T01:07:07.914Z,96.20
2019-05-26T01:12:09.166Z,96.10
2019-05-26T01:17:10.583Z,96.10
2019-05-26T01:22:11.831Z,96.20
2019-05-26T01:27:13.622Z,96.50
2019-05-26T01:32:17.564Z,96.70
2019-05-26T01:37:19.403Z,96.80
2019-05-26T01:42:21.302Z,97.00
2019-05-26T01:47:24.521Z,97.30
2019-05-26T01:52:28.066Z,97.50
2019-05-26T01:57:30.116Z,97.60
2019-05-26T02:02:31.514Z,97.70
2019-05-26T02:07:32.912Z,97.80
2019-05-26T02:12:34.794Z,97.90
2019-05-26T02:17:39.325Z,98.00
2019-05-26T02:22:40.620Z,98.20
2019-05-26T02:27:43.673Z,98.20
2019-05-26T02:32:46.064Z,98.20
2019-05-26T02:37:47.367Z,98.40
2019-05-26T02:42:50.974Z,98.50
2019-05-26T02:47:52.411Z,98.60
2019-05-26T02:52:53.764Z,98.90
2019-05-26T02:57:55.327Z,98.60
2019-05-26T03:03:02.181Z,98.60
2019-05-26T03:08:06.625Z,98.50
2019-05-26T03:13:14.655Z,98.60
2019-05-26T03:18:16.771Z,98.60
2019-05-26T03:23:18.206Z,98.50
2019-05-26T03:28:22.326Z,98.50
2019-05-26T03:33:25.863Z,98.50
2019-05-26T03:38:28.513Z,98.40
2019-05-26T03:43:30.283Z,98.40
2019-05-26T03:48:31.922Z,98.40
2019-05-26T03:53:34.244Z,98.40
2019-05-26T03:58:37.448Z,98.40
2019-05-26T04:03:43.145Z,98.50
2019-05-26T04:08:44.542Z,98.60
2019-05-26T04:13:45.841Z,98.60
2019-05-26T04:18:52.913Z,98.60
2019-05-26T04:23:54.195Z,98.80
2019-05-26T04:28:55.858Z,98.80
2019-05-26T04:33:57.204Z,98.80
2019-05-26T04:38:58.485Z,98.80
2019-05-26T04:43:59.757Z,98.80
2019-05-26T04:49:01.296Z,98.70
2019-05-26T04:54:02.978Z,98.50
2019-05-26T04:59:07.314Z,98.50
2019-05-26T05:04:08.634Z,98.30
2019-05-26T05:09:09.897Z,98.40
2019-05-26T05:14:11.320Z,98.40
2019-05-26T05:19:12.795Z,98.40
2019-05-26T05:24:15.730Z,98.40
2019-05-26T05:29:17.076Z,98.50
2019-05-26T05:34:18.463Z,98.50
2019-05-26T05:39:21.872Z,98.60
2019-05-26T05:44:26.989Z,98.50
2019-05-26T05:49:28.293Z,98.30
2019-05-26T05:54:30.318Z,98.10
2019-05-26T05:59:33.177Z,98.00
2019-05-26T06:04:40.616Z,97.70
2019-05-26T06:09:42.224Z,97.60
2019-05-26T06:14:43.626Z,97.40
2019-05-26T06:19:46.028Z,97.20
2019-05-26T06:24:47.374Z,97.00
2019-05-26T06:29:58.526Z,96.70
2019-05-26T06:34:52.170Z,96.50
2019-05-26T06:39:54.980Z,96.30
2019-05-26T06:44:57.570Z,96.00
2019-05-26T06:49:59.616Z,95.80
2019-05-26T06:55:01.084Z,95.50
2019-05-26T07:00:05.153Z,95.20
2019-05-26T07:05:08.647Z,95.00
2019-05-26T07:10:15.163Z,94.70
2019-05-26T07:15:16.983Z,94.40
2019-05-26T07:20:18.322Z,94.40
2019-05-26T07:25:19.653Z,94.10
2019-05-26T07:30:23.535Z,94.00
2019-05-26T07:35:26.654Z,93.80
2019-05-26T07:40:27.961Z,93.80
2019-05-26T07:45:48.191Z,93.60
2019-05-26T07:50:49.809Z,93.40
2019-05-26T07:55:51.058Z,93.20
2019-05-26T08:00:52.582Z,93.00
2019-05-26T08:05:53.913Z,93.10
2019-05-26T08:11:14.216Z,93.20
2019-05-26T08:16:15.863Z,93.20
2019-05-26T08:21:17.411Z,93.10
2019-05-26T08:26:18.843Z,91.90
2019-05-26T08:31:21.423Z,90.80
2019-05-26T08:36:22.895Z,90.30
2019-05-26T08:41:24.545Z,90.00
2019-05-26T08:46:25.876Z,89.00
2019-05-26T08:51:31.706Z,88.70
2019-05-26T08:56:33.598Z,88.20
2019-05-26T09:01:34.932Z,88.50
2019-05-26T09:06:36.196Z,88.00
2019-05-26T09:11:37.933Z,86.80
2019-05-26T09:16:45.358Z,86.30
2019-05-26T09:21:46.967Z,85.20
2019-05-26T09:26:48.302Z,85.50
2019-05-26T09:31:49.673Z,85.30
2019-05-26T09:36:50.961Z,86.20
2019-05-26T09:41:52.785Z,85.00
2019-05-26T09:46:54.392Z,84.60
2019-05-26T09:51:56.977Z,84.90
2019-05-26T09:56:58.787Z,84.60
2019-05-26T10:02:00.218Z,83.80
2019-05-26T10:07:01.574Z,82.90
2019-05-26T10:12:04.500Z,82.30
2019-05-26T10:17:06.027Z,81.50
2019-05-26T10:22:07.570Z,80.50
2019-05-26T10:27:09.098Z,80.50
2019-05-26T10:32:10.622Z,80.00
2019-05-26T10:37:12.049Z,79.60
2019-05-26T10:42:13.336Z,79.30
2019-05-26T10:47:14.868Z,78.70
2019-05-26T10:52:17.209Z,78.30
2019-05-26T10:57:18.522Z,77.80
2019-05-26T11:02:23.164Z,77.40
2019-05-26T11:07:26.987Z,77.00
2019-05-26T11:12:30.348Z,76.20
2019-05-26T11:17:31.798Z,75.30
2019-05-26T11:22:34.685Z,74.70
2019-05-26T11:27:38.593Z,75.20
2019-05-26T11:32:40.370Z,75.80
2019-05-26T11:37:41.815Z,75.30
2019-05-26T11:42:44.966Z,75.00
2019-05-26T11:47:48.959Z,75.00
2019-05-26T11:52:52.543Z,75.00
2019-05-26T11:57:53.851Z,75.00
2019-05-26T12:02:55.544Z,74.40
2019-05-26T12:07:57.640Z,73.50
2019-05-26T12:12:59.191Z,72.80
2019-05-26T12:18:03.756Z,72.30
2019-05-26T12:23:05.327Z,71.50
2019-05-26T12:28:06.985Z,68.70
2019-05-26T12:33:08.522Z,65.80
2019-05-26T12:38:10.419Z,64.60
2019-05-26T12:43:13.043Z,63.50
2019-05-26T12:48:14.354Z,61.50
2019-05-26T12:53:15.652Z,61.10
2019-05-26T12:58:18.922Z,61.10
2019-05-26T13:03:20.327Z,61.90
2019-05-26T13:08:22.144Z,61.80
2019-05-26T13:13:25.434Z,61.40
2019-05-26T13:18:26.855Z,60.90
2019-05-26T13:23:28.187Z,61.70
2019-05-26T13:28:31.113Z,61.40
2019-05-26T13:33:32.454Z,61.60
2019-05-26T13:38:34.405Z,61.80
2019-05-26T13:43:40.677Z,61.00
2019-05-26T13:48:42.006Z,61.40
2019-05-26T13:53:43.426Z,62.30
2019-05-26T13:58:44.754Z,62.90
2019-05-26T14:03:49.503Z,62.60
2019-05-26T14:08:52.748Z,62.70
2019-05-26T14:13:54.663Z,63.10
2019-05-26T14:18:58.397Z,62.40
2019-05-26T14:24:01.617Z,62.80
2019-05-26T14:29:03.421Z,62.60
2019-05-26T14:34:08.136Z,62.30
2019-05-26T14:39:10.076Z,62.30
2019-05-26T14:44:11.452Z,62.40
2019-05-26T14:49:13.720Z,62.70
2019-05-26T14:54:20.116Z,63.60
2019-05-26T14:59:21.595Z,63.30
2019-05-26T15:04:23.732Z,62.30
2019-05-26T15:09:25.659Z,62.10
2019-05-26T15:14:27.103Z,62.30
2019-05-26T15:19:28.778Z,62.80
2019-05-26T15:24:32.100Z,63.00
2019-05-26T15:29:35.447Z,63.20
2019-05-26T15:34:36.875Z,63.40
2019-05-26T15:39:38.652Z,63.70
2019-05-26T15:44:39.948Z,64.40
2019-05-26T15:49:41.253Z,63.70
2019-05-26T15:54:54.381Z,64.00
2019-05-26T15:59:57.241Z,64.00
2019-05-26T16:04:59.934Z,64.10
2019-05-26T16:10:01.390Z,64.00
2019-05-26T16:15:06.711Z,64.60
2019-05-26T16:20:11.457Z,65.40
2019-05-26T16:25:12.836Z,65.90
2019-05-26T16:30:15.171Z,65.20
2019-05-26T16:35:17.768Z,65.00
2019-05-26T16:40:19.161Z,65.50
2019-05-26T16:45:22.302Z,66.20
2019-05-26T16:50:24.096Z,67.00
2019-05-26T16:55:27.309Z,68.00
2019-05-26T17:00:30.673Z,69.30
2019-05-26T17:05:34.115Z,70.00
2019-05-26T17:10:35.418Z,70.30
2019-05-26T17:15:38.226Z,70.60
2019-05-26T17:20:39.503Z,70.60
2019-05-26T17:25:41.517Z,69.80
2019-05-26T17:30:44.210Z,69.30
2019-05-26T17:35:45.725Z,68.90
2019-05-26T17:40:48.998Z,69.40
2019-05-26T17:45:51.790Z,69.90
2019-05-26T17:50:53.125Z,70.50
2019-05-26T17:55:54.502Z,71.30
2019-05-26T18:00:56.067Z,71.80
2019-05-26T18:05:57.417Z,72.10
2019-05-26T18:10:58.671Z,72.40
2019-05-26T18:15:59.942Z,72.60
2019-05-26T18:21:01.335Z,72.80
2019-05-26T18:26:03.307Z,73.20
2019-05-26T18:31:04.815Z,73.50
2019-05-26T18:36:07.080Z,73.80
2019-05-26T18:41:08.803Z,74.50
2019-05-26T18:46:10.139Z,75.00
2019-05-26T18:51:11.544Z,75.30
2019-05-26T18:56:12.937Z,75.70
2019-05-26T19:01:14.288Z,77.20
2019-05-26T19:06:15.787Z,76.90
2019-05-26T19:11:17.497Z,77.30
2019-05-26T19:16:37.789Z,77.60
2019-05-26T19:21:39.368Z,78.00
2019-05-26T19:26:40.724Z,78.30
2019-05-26T19:31:42.115Z,78.60
2019-05-26T19:36:43.466Z,78.90
2019-05-26T19:41:44.756Z,79.10
2019-05-26T19:46:46.068Z,79.60
2019-05-26T19:51:47.462Z,80.00
2019-05-26T19:56:48.912Z,80.20
2019-05-26T20:01:50.192Z,80.60
2019-05-26T20:06:53.086Z,80.90
2019-05-26T20:11:55.678Z,82.20
2019-05-26T20:16:57.193Z,82.60
2019-05-26T20:21:58.629Z,82.10
2019-05-26T20:26:59.879Z,82.70
2019-05-26T20:32:01.728Z,82.80
2019-05-26T20:37:07.322Z,83.40
2019-05-26T20:42:08.660Z,83.60
2019-05-26T20:47:09.926Z,84.00
2019-05-26T20:52:11.408Z,84.20
2019-05-26T20:57:13.008Z,84.50
2019-05-26T21:02:14.776Z,85.20
2019-05-26T21:07:16.831Z,86.30
2019-05-26T21:12:20.135Z,86.70
2019-05-26T21:17:21.662Z,88.10
2019-05-26T21:22:23.024Z,89.40
2019-05-26T21:27:24.492Z,90.90
2019-05-26T21:32:25.928Z,91.40
2019-05-26T21:37:27.376Z,92.00
2019-05-26T21:42:30.298Z,93.20
2019-05-26T21:47:31.680Z,94.30
2019-05-26T21:52:32.950Z,95.60
2019-05-26T21:57:34.244Z,96.50
2019-05-26T22:02:35.796Z,96.90
2019-05-26T22:07:37.076Z,97.60
2019-05-26T22:12:38.855Z,98.10
2019-05-26T22:17:40.766Z,99.00
2019-05-26T22:27:39.209Z,99.30
2019-05-26T22:32:40.552Z,99.90
2019-05-26T22:37:41.869Z,99.90
2019-05-26T22:42:43.381Z,99.90
2019-05-26T22:47:45.019Z,99.90
2019-05-26T22:52:47.624Z,99.90
2019-05-26T22:57:48.874Z,99.90
2019-05-26T23:02:50.273Z,99.90
2019-05-26T23:07:53.822Z,99.90
2019-05-26T23:12:55.141Z,99.90
2019-05-26T23:17:56.609Z,99.90
2019-05-26T23:22:57.880Z,99.90
2019-05-26T23:27:59.158Z,99.90
2019-05-26T23:33:00.457Z,99.90
2019-05-26T23:38:01.725Z,99.90
2019-05-26T23:43:03.067Z,99.90
2019-05-26T23:48:04.411Z,99.90
2019-05-26T23:53:05.659Z,99.90
2019-05-26T23:58:06.959Z,99.90
